Tiempo atmosférico en la estación meteorológica de Campos, Can Sion, Illes Balears (40 m.)



Fecha
DESCASC
Temp. máxima en grados centígrados (hora)
DESCASC
Temp. mínima en grados centígrados (hora)
DESCASC
Temp. media en grados centígrados
DESCASC
Racha de viento máxima en m/sg (hora)
DESCASC
Velocidad máxima media en intervalos de 10 minutos(hora)
DESCASC
Precipitaciones diarias en mm
DESCASC
Precipitaciones de 00:00 a 06:00 en mm
DESCASC
Precipitaciones de 06:00 a 12:00 en mm
DESCASC
Precipitaciones de 12:00 a 18:00 en mm
DESCASC
Precipitaciones de 18:00 a 24:00 en mm
DESCASC
24-09-2020 29.1 (13:10) 17.1 (06:40) 23.1 12.5 (16:20) 6.67 (15:00) 0 0 0 0 0
23-09-2020 27.8 (12:50) 17.7 (00:00) 22.8 7.78 (14:00) 5.28 (14:00) 0 0 0 0 0
22-09-2020 28.6 (14:50) 16.1 (00:00) 22.4 8.89 (15:30) 5 (14:00) 0 0 0 0 0
21-09-2020 28.7 (15:20) 15.8 (00:00) 22.3 7.78 (17:30) 4.44 (17:00) 0 0 0 0 0
20-09-2020 29.6 (12:10) 18 (00:00) 23.8 9.72 (15:40) 5.56 (15:40) 0 0 0 0 0
19-09-2020 29.3 (13:00) 19.8 (00:00) 24.5 9.72 (13:00) 5.83 (11:20) 0.4 0.2 0.2 0 0
18-09-2020 29.8 (13:10) 18 (00:00) 23.9 8.06 (20:00) 4.17 (20:00) 0.2 0 0 0 0.2
17-09-2020 32.1 (14:30) 15.3 (00:00) 23.7 5.83 (16:00) 3.61 (15:30) 0 0 0 0 0
16-09-2020 31.8 (13:30) 16.5 (00:00) 24.1 5.83 (14:00) 3.06 (15:40) 0 0 0 0 0
15-09-2020 32.3 (15:00) 17.2 (00:00) 24.8 6.39 (15:20) 3.33 (16:00) 0 0 0 0 0
14-09-2020 32.1 (15:10) 17.1 (00:00) 24.6 6.39 (17:10) 3.89 (17:50) 0 0 0 0 0
13-09-2020 33.2 (15:20) 16.5 (00:00) 24.9 6.39 (11:40) 3.06 (15:40) 0 0 0 0 0
12-09-2020 31.5 (15:40) 17.1 (00:00) 24.3 6.67 (15:10) 3.33 (13:30) 0 0 0 0 0
11-09-2020 31.1 (15:20) 18 (00:00) 24.6 9.17 (12:10) 5.28 (12:20) 7.4 0.2 7.2 0 0
10-09-2020 28.2 (14:30) 15 (00:00) 21.6 8.33 (16:50) 3.61 (17:00) 0 0 0 0 0
09-09-2020 27.5 (13:40) 15.1 (00:00) 21.3 6.67 (14:00) 3.61 (14:10) 0 0 0 0 0
08-09-2020 26 (14:10) 13.6 (00:00) 19.8 8.33 (11:50) 4.72 (15:20) 0.4 0 0 0.4 0
07-09-2020 23.8 (01:00) 17.3 (19:00) 20.5 13.33 (08:20) 5 (07:40) 48.4 0 14.2 31.8 2.4
06-09-2020 30.8 (13:30) 15.1 (00:00) 22.9 7.5 (11:50) 3.89 (18:00) 0 0 0 0 0
05-09-2020 29.6 (13:30) 15.9 (00:00) 22.8 8.33 (15:30) 4.44 (16:10) 0 0 0 0 0
04-09-2020 30 (14:00) 14.6 (00:00) 22.3 6.11 (15:10) 2.78 (13:30) 0 0 0 0 0
03-09-2020 29.1 (16:20) 14.9 (00:00) 22 6.67 (17:30) 3.89 (16:30) 0 0 0 0 0
02-09-2020 29 (14:00) 16.5 (00:00) 22.8 9.17 (09:50) 4.72 (15:40) 0 0 0 0 0
01-09-2020 27.9 (13:40) 13.8 (00:00) 20.8 5.83 (13:50) 2.78 (13:50) 0 0 0 0 0
31-08-2020 27.2 (16:30) 14.7 (00:00) 21 8.06 (03:20) 3.89 (03:20) 0.4 0.4 0 0 0
30-08-2020 27.1 (14:10) 15 (00:00) 21.1 6.67 (18:30) 4.17 (18:30) 0 0 0 0 0
29-08-2020 29.2 (10:50) 19.3 (00:00) 24.3 23.89 (13:10) 7.5 (13:10) 19.6 0 0 19 0.6
28-08-2020 34.4 (16:00) 18.1 (00:00) 26.3 7.22 (14:20) 4.17 (12:50) 0 0 0 0 0

Gráficas

Temp. máximas Temp. mínimas Temp. medias Precipitaciones Rachas de viento máximas Velocidades máximas media en intervalos de 10 minutos

Datos horarios

Fecha y hora oficial Temperatura (ºC) Velocidad del viento (km/h) Dirección del viento Racha (km/h) Dirección de racha Precipitación (mm) Presión (hPa) Tendencia (hPa) Humedad (%)
2020-09-26 23:00:00 17.8 3 Sudoeste 19 Sudoeste 0 -- -- 61
2020-09-26 22:00:00 17.6 4 Oeste 13 Oeste 0 -- -- 63
2020-09-26 21:00:00 18.1 6 Oeste 17 Sudoeste 0 -- -- 58
2020-09-26 20:00:00 19 7 Oeste 25 Oeste 0 -- -- 56
2020-09-26 19:00:00 20.4 12 Oeste 25 Oeste 0 -- -- 52
2020-09-26 18:00:00 22.3 13 Oeste 32 Oeste 0 -- -- 46
2020-09-26 17:00:00 22.3 20 Noroeste 35 Noroeste 0 -- -- 45
2020-09-26 16:00:00 22.4 21 Noroeste 38 Oeste 0 -- -- 44
2020-09-26 15:00:00 22.4 14 Oeste 33 Oeste 0 -- -- 44
2020-09-26 14:00:00 20.9 11 Oeste 28 Oeste 0 -- -- 50
2020-09-26 13:00:00 22.4 16 Noroeste 30 Noroeste 0 -- -- 46
2020-09-26 12:00:00 21.8 12 Noroeste 26 Norte 0 -- -- 48
2020-09-26 11:00:00 19.6 10 Noroeste 19 Oeste 0 -- -- 54
2020-09-26 10:00:00 18.4 13 Noroeste 26 Noroeste 0 -- -- 59
2020-09-26 09:00:00 18.3 7 Noroeste 23 Noroeste 0 -- -- 58
2020-09-26 08:00:00 16.6 12 Noroeste 25 Noroeste 0 -- -- 61
2020-09-26 07:00:00 16 9 Noroeste 22 Noroeste 0 -- -- 61
2020-09-26 06:00:00 16.9 13 Noroeste 37 Oeste 0 -- -- 57
2020-09-26 05:00:00 17.2 14 Noroeste 30 Noroeste 0 -- -- 55
2020-09-26 04:00:00 17.7 13 Noroeste 34 Noroeste 0 -- -- 54
2020-09-26 03:00:00 17.8 14 Noroeste 36 Oeste 0 -- -- 53
2020-09-26 02:00:00 18.4 19 Oeste 57 Oeste 0 -- -- 49
2020-09-26 01:00:00 19 23 Noroeste 51 Oeste 0 -- -- 44
2020-09-26 00:00:00 19.5 17 Noroeste 55 Oeste 0 -- -- 41
2020-09-25 23:00:00 19.8 26 Noroeste 57 Oeste 0 -- -- 40
2020-09-25 22:00:00 20.1 24 Noroeste 53 Noroeste 0 -- -- 41
2020-09-25 21:00:00 20.5 31 Noroeste 59 Oeste 0 -- -- 40
2020-09-25 20:00:00 20.8 28 Noroeste 58 Noroeste 0 -- -- 38
2020-09-25 19:00:00 21.5 30 Noroeste 56 Noroeste 0 -- -- 38
2020-09-25 18:00:00 22.6 32 Noroeste 59 Noroeste 0 -- -- 36
2020-09-25 17:00:00 23 28 Oeste 61 Noroeste 0 -- -- 36
2020-09-25 16:00:00 23.7 30 Noroeste 60 Noroeste 0 -- -- 38
2020-09-25 15:00:00 23.8 32 Noroeste 54 Noroeste 0 -- -- 37
2020-09-25 14:00:00 23.9 27 Noroeste 53 Oeste 0 -- -- 39
2020-09-25 13:00:00 23.8 23 Noroeste 48 Oeste 0 -- -- 43
2020-09-25 12:00:00 25.5 22 Noroeste 47 Noroeste 0 -- -- 40
2020-09-25 11:00:00 24.8 16 Noroeste 37 Noroeste 0 -- -- 42
2020-09-25 10:00:00 23.7 17 Noroeste 37 Noroeste 0 -- -- 47
2020-09-25 09:00:00 23.4 10 Noroeste 22 Oeste 0 -- -- 55
2020-09-25 08:00:00 22.1 7 Noroeste 21 Oeste 0 -- -- 66
2020-09-25 07:00:00 23.4 13 Oeste 33 Oeste 0 -- -- 71
2020-09-25 06:00:00 23.6 15 Oeste 32 Sudoeste 0 -- -- 72
2020-09-25 05:00:00 24.1 19 Oeste 39 Oeste 0 -- -- 68
2020-09-25 04:00:00 24.2 18 Oeste 38 Oeste 0 -- -- 68
2020-09-25 03:00:00 24.8 16 Oeste 35 Oeste 0 -- -- 65
2020-09-25 02:00:00 24.9 18 Oeste 36 Sudoeste 0 -- -- 69
2020-09-25 01:00:00 24.6 13 Oeste 32 Oeste 0 -- -- 80
2020-09-25 00:00:00 24.9 18 Sudoeste 43 Sudoeste 0 -- -- 78
2020-09-24 23:00:00 25 18 Sudoeste 36 Sudoeste 0 -- -- 75
2020-09-24 22:00:00 25.2 15 Sudoeste 33 Sudoeste 0 -- -- 75
2020-09-24 21:00:00 25.1 13 Sudoeste 26 Sudoeste 0 -- -- 74
2020-09-24 20:00:00 24.8 8 Sudoeste 28 Sudoeste 0 -- -- 77
2020-09-24 19:00:00 25.7 14 Sudoeste 36 Oeste 0 -- -- 68
2020-09-24 18:00:00 27.6 18 Sudoeste 37 Oeste 0 -- -- 57
2020-09-24 17:00:00 28.4 21 Oeste 45 Oeste 0 -- -- 52
2020-09-24 16:00:00 28.9 19 Sudoeste 39 Oeste 0 -- -- 55
2020-09-24 15:00:00 28.7 24 Sudoeste 44 Sudoeste 0 -- -- 55
2020-09-24 14:00:00 29 21 Oeste 37 Sudoeste 0 -- -- 56
2020-09-24 13:00:00 28.8 19 Sudoeste 36 Sudoeste 0 -- -- 57
2020-09-24 12:00:00 28.7 15 Sudoeste 25 Sudoeste 0 -- -- 62
2020-09-24 11:00:00 27.8 12 Sudoeste 24 Sudoeste 0 -- -- 73
2020-09-24 10:00:00 25.5 10 Sudoeste 15 Sudoeste 0 -- -- 89
2020-09-24 09:00:00 21.4 3 Este 5 Este 0 -- -- 100
2020-09-24 08:00:00 17.5 4 Este 6 Este 0 -- -- 99
2020-09-24 07:00:00 17.2 4 Este 4 Este 0 -- -- 97
2020-09-24 06:00:00 17.5 0 Calma 3 Este 0 -- -- 97
2020-09-24 05:00:00 18.2 3 Este 4 Este 0 -- -- 98
2020-09-24 04:00:00 17.7 3 Sudeste 5 Este 0 -- -- 97
2020-09-24 03:00:00 17.8 3 Este -- -- 0 -- -- 96
2020-09-24 02:00:00 18.2 2 Este 4 Sur 0 -- -- 96
2020-09-24 01:00:00 18.6 0 Calma 4 Sur 0 -- -- 95
2020-09-24 00:00:00 18.9 2 Sudeste 4 Sudeste 0 -- -- 94
2020-09-23 23:00:00 19.6 0 Calma 4 Sudoeste 0 -- -- 93
2020-09-23 22:00:00 20.2 2 Sudeste 3 Sudeste 0 -- -- 90
2020-09-23 21:00:00 21.9 2 Sudeste 5 Sur 0 -- -- 88
2020-09-23 20:00:00 24 3 Sudoeste 19 Oeste 0 -- -- 84
2020-09-23 19:00:00 25.6 12 Sudoeste 22 Sudoeste 0 -- -- 77
2020-09-23 18:00:00 26.1 14 Sudoeste 27 Sudoeste 0 -- -- 72
2020-09-23 17:00:00 27.3 17 Sudoeste 28 Oeste 0 -- -- 69
2020-09-23 16:00:00 27.2 14 Sudoeste 27 Sudoeste 0 -- -- 69
2020-09-23 15:00:00 27.6 13 Sudoeste 28 Sudoeste -- -- -- 68
2020-09-23 14:00:00 26.9 19 Sudoeste 28 Oeste 0 -- -- 71
2020-09-23 13:00:00 27.5 17 Sudoeste 28 Sudoeste 0 -- -- 71
2020-09-23 12:00:00 27.2 14 Oeste 26 Sudoeste 0 -- -- 71
2020-09-23 11:00:00 26.2 15 Sudoeste 26 Oeste 0 -- -- 74
2020-09-23 10:00:00 25.2 11 Sudoeste 20 Sudoeste 0 -- -- 81
2020-09-23 09:00:00 20.8 0 Calma 3 Oeste 0 -- -- 99
2020-09-23 08:00:00 17.9 2 Sudeste 5 Este 0 -- -- 97
2020-09-23 07:00:00 17.7 3 Este 4 Este 0 -- -- 96
2020-09-23 06:00:00 18.4 0 Calma 5 Sudoeste 0 -- -- 95
2020-09-23 05:00:00 19.5 0 Calma 9 Sur 0 -- -- 95
2020-09-23 04:00:00 20.1 5 Sudoeste 9 Sur 0 -- -- 98
2020-09-23 03:00:00 18.5 0 Calma 5 Sudoeste 0 -- -- 96
2020-09-23 02:00:00 18.9 4 Sudoeste 8 Sur 0 -- -- 96
2020-09-23 01:00:00 18.9 0 Calma 8 Sur 0 -- -- 94
2020-09-23 00:00:00 19.2 2 Sur 5 Sudeste 0 -- -- 91
2020-09-22 23:00:00 20.3 3 Este 8 Sur 0 -- -- 90
2020-09-22 22:00:00 21.3 5 Sur 8 Sur 0 -- -- 89
2020-09-22 21:00:00 22.2 4 Sur 7 Sur 0 -- -- 85
2020-09-22 20:00:00 23.7 4 Sudoeste 16 Sudoeste 0 -- -- 81
2020-09-22 19:00:00 25.3 10 Sudoeste 24 Sudoeste 0 -- -- 73
2020-09-22 18:00:00 26 13 Sudoeste 29 Sudoeste 0 -- -- 70
2020-09-22 17:00:00 26.8 16 Sudoeste 24 Sudoeste 0 -- -- 65
2020-09-22 16:00:00 27.7 14 Sudoeste 32 Oeste 0 -- -- 63
2020-09-22 15:00:00 27.9 15 Sudoeste 27 Sudoeste 0 -- -- 62
2020-09-22 14:00:00 27.7 18 Sudoeste 27 Sudoeste 0 -- -- 65
2020-09-22 13:00:00 27.4 11 Sudoeste 21 Sudoeste 0 -- -- 65
2020-09-22 12:00:00 26.7 11 Sudoeste 20 Sudoeste 0 -- -- 66
2020-09-22 11:00:00 26.6 8 Sudoeste 13 Sudoeste 0 -- -- 70
2020-09-22 10:00:00 24.4 2 Este 8 Este 0 -- -- 77
2020-09-22 09:00:00 19.6 3 Este 5 Este 0 -- -- 99
2020-09-22 08:00:00 16.2 3 Nordeste 4 Nordeste 0 -- -- 98
2020-09-22 07:00:00 16.9 4 Este 7 Este 0 -- -- 97
2020-09-22 06:00:00 16.2 4 Este 6 Este 0 -- -- 97
2020-09-22 05:00:00 16.2 4 Este 6 Norte 0 -- -- 96
2020-09-22 04:00:00 16.4 2 Este 4 Este 0 -- -- 95
2020-09-22 03:00:00 17 3 Este 5 Este 0 -- -- 95
2020-09-22 02:00:00 17.4 2 Este 5 Este 0 -- -- 94
2020-09-22 01:00:00 18.2 4 Este 5 Este 0 -- -- 94
2020-09-22 00:00:00 18.5 4 Este 5 Este 0 -- -- 92
2020-09-21 23:00:00 18.9 3 Este 5 Sudeste 0 -- -- 89
2020-09-21 22:00:00 20.1 3 Este 5 Sudoeste 0 -- -- 86
2020-09-21 21:00:00 21.8 3 Sur 6 Oeste 0 -- -- 80
2020-09-21 20:00:00 24.2 5 Sudoeste 18 Sudoeste 0 -- -- 73
2020-09-21 19:00:00 25.9 10 Sudoeste 26 Sudoeste 0 -- -- 66
2020-09-21 18:00:00 26.8 14 Sudoeste 28 Sudoeste 0 -- -- 68
2020-09-21 17:00:00 27.8 16 Sudoeste 27 Sudoeste 0 -- -- 63
2020-09-21 16:00:00 27.7 13 Sudoeste 27 Sudoeste 0 -- -- 63
2020-09-21 15:00:00 28.5 12 Sudoeste 27 Sudoeste 0 -- -- 63
2020-09-21 14:00:00 28.2 14 Sudoeste 26 Sudoeste 0 -- -- 62
2020-09-21 13:00:00 27.1 13 Sudoeste 24 Sudoeste 0 -- -- 65
2020-09-21 12:00:00 27.4 10 Sudoeste 22 Sudoeste 0 -- -- 63
2020-09-21 11:00:00 26.3 8 Sur 17 Sur 0 -- -- 70
2020-09-21 10:00:00 25.3 3 Sur 11 Sudeste 0 -- -- 76
2020-09-21 09:00:00 20.1 3 Este 6 Este 0 -- -- 93
2020-09-21 08:00:00 15.8 3 Este 4 Nordeste 0 -- -- 96
2020-09-21 07:00:00 16.3 2 Nordeste 5 Nordeste 0 -- -- 96
2020-09-21 06:00:00 16.7 2 Nordeste 5 Este 0 -- -- 94
2020-09-21 05:00:00 17.7 4 Este 6 Este 0 -- -- 94
2020-09-21 04:00:00 17.7 5 Este 6 Este 0 -- -- 95
2020-09-21 03:00:00 18 3 Nordeste 7 Este 0 -- -- 95
2020-09-21 02:00:00 17.6 4 Este 5 Este 0 -- -- 94
2020-09-21 01:00:00 17.8 4 Este 5 Este 0 -- -- 94
2020-09-21 00:00:00 18 3 Este 4 Este 0 -- -- 92
2020-09-20 23:00:00 18.7 3 Este 4 Sur 0 -- -- 89
2020-09-20 22:00:00 20.3 0 Calma 9 Oeste 0 -- -- 83
2020-09-20 21:00:00 22 6 Sudoeste 8 Sudoeste 0 -- -- 80
2020-09-20 20:00:00 23.9 5 Sudoeste 22 Sudoeste 0 -- -- 72
2020-09-20 19:00:00 25.6 13 Sudoeste 27 Sudoeste 0 -- -- 66
2020-09-20 18:00:00 26.7 15 Sudoeste 27 Sudoeste 0 -- -- 62
2020-09-20 17:00:00 27.5 16 Sudoeste 32 Sudoeste 0 -- -- 59
2020-09-20 16:00:00 28.2 18 Sudoeste 35 Sudoeste 0 -- -- 59
2020-09-20 15:00:00 28.6 17 Sudoeste 28 Sudoeste 0 -- -- 58
2020-09-20 14:00:00 28.6 14 Sudoeste 25 Sudoeste 0 -- -- 53
2020-09-20 13:00:00 28.6 10 Sudoeste 25 Sudoeste 0 -- -- 46
2020-09-20 12:00:00 29.2 5 Sur 18 Sudoeste 0 -- -- 47
2020-09-20 11:00:00 28.2 6 Oeste 12 Noroeste 0 -- -- 45
2020-09-20 10:00:00 26.6 6 Oeste 12 Oeste 0 -- -- 62
2020-09-20 09:00:00 23.3 4 Oeste 6 Oeste 0 -- -- 82
2020-09-20 08:00:00 21.3 0 Calma 12 Sudoeste 0 -- -- 86
2020-09-20 07:00:00 22.6 8 Sudoeste 19 Oeste 0 -- -- 80
2020-09-20 06:00:00 22.5 9 Sudoeste 19 Oeste 0 -- -- 77
2020-09-20 05:00:00 22.7 10 Sudoeste 19 Sudoeste 0 -- -- 79
2020-09-20 04:00:00 21.2 11 Sudoeste 19 Sudoeste 0 -- -- 97
2020-09-20 03:00:00 20 0 Calma 9 Sudoeste 0 -- -- 92
2020-09-20 02:00:00 20 5 Sudoeste 10 Sudoeste 0 -- -- 93
2020-09-20 01:00:00 19.3 5 Sur 6 Sur 0 -- -- 93
2020-09-20 00:00:00 20.1 4 Sur 12 Sur 0 -- -- 92
2020-09-19 23:00:00 20.6 4 Este 10 Sur 0 -- -- 89
2020-09-19 22:00:00 21 3 Nordeste 9 Sur 0 -- -- 87
2020-09-19 21:00:00 21.1 4 Sudeste 6 Sur 0 -- -- 77
2020-09-19 20:00:00 24.2 6 Oeste 26 Oeste 0 -- -- 64
2020-09-19 19:00:00 26.4 13 Sudoeste 30 Oeste 0 -- -- 58
2020-09-19 18:00:00 27.8 13 Oeste 32 Oeste 0 -- -- 48
2020-09-19 17:00:00 28.3 17 Oeste 33 Sudoeste 0 -- -- 51
2020-09-19 16:00:00 29 18 Sudoeste 33 Sudoeste 0 -- -- 53
2020-09-19 15:00:00 29.3 17 Oeste 34 Oeste 0 -- -- 58
2020-09-19 14:00:00 29.1 18 Oeste 33 Noroeste 0 -- -- 62
2020-09-19 13:00:00 29.3 20 Oeste 35 Oeste 0 -- -- 66
2020-09-19 12:00:00 28.3 17 Oeste 35 Sudoeste 0 -- -- 70
2020-09-19 11:00:00 27.6 18 Sudoeste 33 Sudoeste 0 -- -- 78
2020-09-19 10:00:00 25.9 10 Sur 19 Sudoeste 0.2 -- -- 84
2020-09-19 09:00:00 22.6 4 Este 7 Este 0 -- -- 99
2020-09-19 08:00:00 21.2 4 Nordeste 9 Este 0 -- -- 99
2020-09-19 07:00:00 20.7 0 Calma 7 Norte 0 -- -- 98
2020-09-19 06:00:00 20.9 2 Nordeste 5 Nordeste 0 -- -- 97
2020-09-19 05:00:00 21.6 0 Calma 8 Noroeste 0 -- -- 97
2020-09-19 04:00:00 22.4 4 Este 15 Este 0 -- -- 97
2020-09-19 03:00:00 22.4 3 Nordeste 7 Nordeste 0 -- -- 97
2020-09-19 02:00:00 22.7 0 Calma 19 Este 0.2 -- -- 97
2020-09-19 01:00:00 22.8 4 Sudoeste 16 Oeste 0 -- -- 96
2020-09-19 00:00:00 22.9 3 Nordeste 9 Este 0 -- -- 93
2020-09-18 23:00:00 23.6 5 Sudeste 18 Este 0 -- -- 92
2020-09-18 22:00:00 23.8 10 Este 19 Sudeste 0 -- -- 93
2020-09-18 21:00:00 23.6 9 Este 25 Este 0 -- -- 93
2020-09-18 20:00:00 24.4 15 Este 29 Este 0.2 -- -- 89
2020-09-18 19:00:00 25.8 6 Sudeste 14 Sudeste 0 -- -- 78
2020-09-18 18:00:00 27.3 8 Este 21 Este 0 -- -- 68
2020-09-18 17:00:00 27.1 8 Sudeste 17 Sudeste 0 -- -- 74
2020-09-18 16:00:00 27.6 8 Sudeste 19 Este 0 -- -- 67
2020-09-18 15:00:00 28.8 5 Sur 14 Sudeste 0 -- -- 59
2020-09-18 14:00:00 28.7 9 Sudeste 17 Sudeste 0 -- -- 64
2020-09-18 13:00:00 29.5 7 Sur 14 Sur 0 -- -- 61
2020-09-18 12:00:00 27.2 9 Este 15 Este 0 -- -- 71
2020-09-18 11:00:00 26.6 7 Este 14 Sudeste 0 -- -- 76
2020-09-18 10:00:00 23.7 2 Norte 6 Norte 0 -- -- 87
2020-09-18 09:00:00 21 3 Nordeste 8 Norte 0 -- -- 94
2020-09-18 08:00:00 19 4 Nordeste 9 Nordeste 0 -- -- 98
2020-09-18 07:00:00 18.5 0 Calma 7 Este 0 -- -- 96
2020-09-18 06:00:00 18.3 5 Este 8 Este 0 -- -- 96
2020-09-18 05:00:00 18.7 0 Calma 5 Nordeste 0 -- -- 95
2020-09-18 04:00:00 19.2 4 Nordeste 8 Nordeste 0 -- -- 96
2020-09-18 03:00:00 18.9 3 Este 6 Este 0 -- -- 95
2020-09-18 02:00:00 19.2 3 Nordeste 6 Este 0 -- -- 94
2020-09-18 01:00:00 19.6 3 Este 6 Este 0 -- -- 93
2020-09-18 00:00:00 19.8 4 Este 5 Este 0 -- -- 91
2020-09-17 23:00:00 20.7 2 Este 5 Este 0 -- -- 86
2020-09-17 22:00:00 22.2 4 Este 6 Este 0 -- -- 81
2020-09-17 21:00:00 24.1 4 Este -- -- 0 -- -- 76
2020-09-17 20:00:00 25.8 2 Sudeste 9 Sur 0 -- -- 68
2020-09-17 19:00:00 27.1 6 Sudeste 11 Sur 0 -- -- 58
2020-09-17 18:00:00 28.1 5 Sur 13 Sudoeste 0 -- -- 54
2020-09-17 17:00:00 29.3 8 Sudoeste 19 Sudoeste 0 -- -- 47
2020-09-17 16:00:00 30.1 12 Sudoeste 21 Sudoeste 0 -- -- 44
2020-09-17 15:00:00 32 6 Sudoeste 16 Sudoeste 0 -- -- 35
2020-09-17 14:00:00 31.4 6 Sudoeste 16 Sudoeste 0 -- -- 38
2020-09-17 13:00:00 29.9 6 Oeste 21 Sudoeste 0 -- -- 39
2020-09-17 12:00:00 29.5 8 Oeste 15 Oeste 0 -- -- 44
2020-09-17 11:00:00 27.8 5 Sudoeste 9 Sudoeste 0 -- -- 45
2020-09-17 10:00:00 25.2 2 Norte 4 Este 0 -- -- 65
2020-09-17 09:00:00 20.2 0 Calma 6 Este 0 -- -- 91
2020-09-17 08:00:00 16.2 5 Este 7 Este 0 -- -- 97
2020-09-17 07:00:00 15.4 3 Sudeste 5 Este 0 -- -- 95
2020-09-17 06:00:00 15.7 3 Este 5 Norte 0 -- -- 95
2020-09-17 05:00:00 16.5 0 Calma 8 Este 0 -- -- 95
2020-09-17 04:00:00 16.8 4 Este 5 Este 0 -- -- 95
2020-09-17 03:00:00 17.2 3 Norte 4 Nordeste 0 -- -- 94
2020-09-17 02:00:00 18 2 Nordeste 4 Nordeste 0 -- -- 92
2020-09-17 01:00:00 19.1 2 Nordeste 6 Este 0 -- -- 93
2020-09-17 00:00:00 19.4 0 Calma 5 Este 0 -- -- 91
2020-09-16 23:00:00 20.1 3 Nordeste 6 Este 0 -- -- 90
2020-09-16 22:00:00 21 3 Este 4 Nordeste 0 -- -- 86
2020-09-16 21:00:00 22.9 3 Sudeste 5 Sur 0 -- -- 80
2020-09-16 20:00:00 25.7 4 Sudeste 9 Sur 0 -- -- 72
2020-09-16 19:00:00 27.9 6 Sudeste 14 Sudeste 0 -- -- 63
2020-09-16 18:00:00 29.3 9 Sudeste 16 Sudeste 0 -- -- 56
2020-09-16 17:00:00 30.1 9 Sur 19 Sudeste 0 -- -- 48
2020-09-16 16:00:00 31.3 10 Sur 20 Sudeste 0 -- -- 42
2020-09-16 15:00:00 31.5 8 Sudeste 19 Sudeste 0 -- -- 42
2020-09-16 14:00:00 31.6 10 Sudeste 21 Este 0 -- -- 42
2020-09-16 13:00:00 31.4 8 Sudeste 17 Sudeste 0 -- -- 40
2020-09-16 12:00:00 30.3 4 Este 8 Sudeste 0 -- -- 43
2020-09-16 11:00:00 28.3 2 Oeste 5 Noroeste 0 -- -- 52
2020-09-16 10:00:00 24.5 2 Nordeste 5 Este 0 -- -- 77
2020-09-16 09:00:00 19.8 2 Este 7 Este 0 -- -- 90
2020-09-16 08:00:00 16.8 0 Calma 5 Este 0 -- -- 97
2020-09-16 07:00:00 16.8 4 Este 6 Este 0 -- -- 96
2020-09-16 06:00:00 17 4 Este 6 Este 0 -- -- 97
2020-09-16 05:00:00 16.9 3 Este 5 Este 0 -- -- 95
2020-09-16 04:00:00 17.3 3 Este 5 Este 0 -- -- 94
2020-09-16 03:00:00 17.8 0 Calma 3 Nordeste 0 -- -- 94
2020-09-16 02:00:00 18.2 3 Nordeste 5 Este 0 -- -- 93
2020-09-16 01:00:00 18.9 3 Este 5 Este 0 -- -- 92
2020-09-16 00:00:00 19.6 0 Calma 4 Este 0 -- -- 91
2020-09-15 23:00:00 20.5 4 Este 5 Este 0 -- -- 90
2020-09-15 22:00:00 21.9 2 Este 5 Este 0 -- -- 87
2020-09-15 21:00:00 23.7 0 Calma 6 Sudeste 0 -- -- 83
2020-09-15 20:00:00 26.2 4 Sudeste 10 Sur 0 -- -- 71
2020-09-15 19:00:00 28.5 5 Sudeste 11 Sudeste 0 -- -- 58
2020-09-15 18:00:00 29.9 5 Sudeste 19 Sudeste 0 -- -- 50
2020-09-15 17:00:00 30.3 10 Sudeste 21 Sudeste 0 -- -- 48
2020-09-15 16:00:00 30.9 12 Sudeste 23 Este 0 -- -- 44
2020-09-15 15:00:00 32.3 9 Sudeste 21 Sudeste 0 -- -- 40
2020-09-15 14:00:00 31.8 10 Sudeste 17 Sudeste 0 -- -- 44
2020-09-15 13:00:00 31.3 5 Nordeste 11 Este 0 -- -- 46
2020-09-15 12:00:00 29.7 3 Este 14 Este 0 -- -- 55
2020-09-15 11:00:00 27.8 4 Nordeste 13 Este 0 -- -- 67
2020-09-15 10:00:00 24.5 9 Este 15 Este 0 -- -- 81
2020-09-15 09:00:00 22.6 4 Este 8 Este 0 -- -- 92
2020-09-15 08:00:00 18.5 3 Este 6 Este 0 -- -- 98
2020-09-15 07:00:00 18.3 4 Este 6 Este 0 -- -- 97
2020-09-15 06:00:00 18.2 3 Este 7 Este 0 -- -- 96
2020-09-15 05:00:00 17.7 2 Nordeste 6 Este 0 -- -- 96
2020-09-15 04:00:00 18 3 Este 6 Este 0 -- -- 96
2020-09-15 03:00:00 17.4 4 Este 5 Este 0 -- -- 95
2020-09-15 02:00:00 17.6 2 Este 4 Nordeste 0 -- -- 92
2020-09-15 01:00:00 18.4 3 Este 8 Este 0 -- -- 91
2020-09-15 00:00:00 18.9 4 Este 6 Este 0 -- -- 89
2020-09-14 23:00:00 19.7 4 Este 6 Este 0 -- -- 87
2020-09-14 22:00:00 20.9 5 Este 6 Este 0 -- -- 83
2020-09-14 21:00:00 23 0 Calma 9 Este 0 -- -- 73
2020-09-14 20:00:00 26.5 6 Este 17 Este 0 -- -- 61
2020-09-14 19:00:00 29.2 10 Este 20 Este 0 -- -- 52
2020-09-14 18:00:00 30.7 13 Este 23 Este 0 -- -- 41
2020-09-14 17:00:00 31.5 13 Este 23 Este 0 -- -- 42
2020-09-14 16:00:00 31.8 13 Este 22 Este 0 -- -- 42
2020-09-14 15:00:00 31.9 8 Este 20 Sudeste 0 -- -- 43
2020-09-14 14:00:00 31.7 10 Este 21 Sudeste 0 -- -- 50
2020-09-14 13:00:00 30.6 6 Este 14 Este 0 -- -- 61
2020-09-14 12:00:00 29.2 3 Noroeste 14 Noroeste 0 -- -- 61
2020-09-14 11:00:00 27.3 4 Norte 8 Norte 0 -- -- 68
2020-09-14 10:00:00 25.3 3 Nordeste 7 Nordeste 0 -- -- 83
2020-09-14 09:00:00 21.6 3 Nordeste 6 Nordeste 0 -- -- 97
2020-09-14 08:00:00 17.7 3 Este 5 Este 0 -- -- 98
2020-09-14 07:00:00 17.2 2 Este 4 Nordeste 0 -- -- 96
2020-09-14 06:00:00 17.9 2 Este 7 Este 0 -- -- 97
2020-09-14 05:00:00 18.1 4 Este 7 Este 0 -- -- 97
2020-09-14 04:00:00 17.3 3 Este 4 Este 0 -- -- 94
2020-09-14 03:00:00 18 0 Calma 7 Nordeste 0 -- -- 95
2020-09-14 02:00:00 18.1 3 Este 5 Este 0 -- -- 94
2020-09-14 01:00:00 18.5 3 Este 5 Nordeste 0 -- -- 93
2020-09-14 00:00:00 19.1 0 Calma 3 Nordeste 0 -- -- 90
2020-09-13 23:00:00 20.1 0 Calma 6 Nordeste 0 -- -- 89
2020-09-13 22:00:00 21.6 2 Este 5 Este 0 -- -- 87
2020-09-13 21:00:00 23.4 3 Norte 6 Sudoeste 0 -- -- 83
2020-09-13 20:00:00 26 5 Sudoeste 17 Sudoeste 0 -- -- 73
2020-09-13 19:00:00 28.8 5 Oeste 18 Oeste 0 -- -- 58
2020-09-13 18:00:00 31.4 9 Norte 22 Nordeste 0 -- -- 36
2020-09-13 17:00:00 32.3 9 Norte 21 Norte 0 -- -- 34
2020-09-13 16:00:00 32.8 9 Nordeste 22 Noroeste 0 -- -- 34
2020-09-13 15:00:00 32.9 9 Norte 19 Nordeste 0 -- -- 39
2020-09-13 14:00:00 32.6 7 Nordeste 19 Norte 0 -- -- 41
2020-09-13 13:00:00 31.6 8 Norte 21 Nordeste 0 -- -- 43
2020-09-13 12:00:00 30.5 9 Nordeste 23 Nordeste 0 -- -- 44
2020-09-13 11:00:00 28.8 7 Nordeste 16 Norte 0 -- -- 52
2020-09-13 10:00:00 25.7 7 Nordeste 14 Nordeste 0 -- -- 72
2020-09-13 09:00:00 22.5 5 Nordeste 12 Nordeste 0 -- -- 86
2020-09-13 08:00:00 17.7 3 Nordeste 7 Nordeste 0 -- -- 98
2020-09-13 07:00:00 16.8 3 Este 6 Nordeste 0 -- -- 96
2020-09-13 06:00:00 17.1 3 Norte 5 Nordeste 0 -- -- 96
2020-09-13 05:00:00 17.4 3 Nordeste 4 Este 0 -- -- 95
2020-09-13 04:00:00 17.7 4 Este 4 Este 0 -- -- 94
2020-09-13 03:00:00 18.2 3 Nordeste 5 Nordeste 0 -- -- 94
2020-09-13 02:00:00 18.6 4 Este 5 Este 0 -- -- 93
2020-09-13 01:00:00 18.9 4 Nordeste 7 Nordeste 0 -- -- 92
2020-09-13 00:00:00 19.2 2 Norte 4 Nordeste 0 -- -- 90
2020-09-12 23:00:00 20.3 0 Calma 7 Nordeste 0 -- -- 87
2020-09-12 22:00:00 21.5 4 Este 5 Este 0 -- -- 84
2020-09-12 21:00:00 23.9 3 Norte 10 Nordeste 0 -- -- 74
2020-09-12 20:00:00 26.1 5 Nordeste 15 Norte 0 -- -- 63
2020-09-12 19:00:00 28.8 7 Nordeste 18 Norte 0 -- -- 52
2020-09-12 18:00:00 29.8 9 Nordeste 24 Nordeste 0 -- -- 48
2020-09-12 17:00:00 30.4 9 Norte 24 Norte 0 -- -- 45
2020-09-12 16:00:00 31.3 9 Nordeste 24 Norte 0 -- -- 46
2020-09-12 15:00:00 31.3 8 Norte 24 Norte 0 -- -- 45
2020-09-12 14:00:00 30.9 10 Nordeste 22 Nordeste 0 -- -- 45
2020-09-12 13:00:00 30.2 9 Norte 22 Nordeste 0 -- -- 48
2020-09-12 12:00:00 29.3 10 Nordeste 22 Norte 0 -- -- 54
2020-09-12 11:00:00 27.7 9 Norte 19 Norte 0 -- -- 58
2020-09-12 10:00:00 24.8 4 Norte 8 Norte 0 -- -- 77
2020-09-12 09:00:00 20.9 0 Calma 4 Este 0 -- -- 95
2020-09-12 08:00:00 17.8 0 Calma 7 Este 0 -- -- 98
2020-09-12 07:00:00 17.3 4 Este 5 Este 0 -- -- 97
2020-09-12 06:00:00 17.3 0 Calma 4 Sudoeste 0 -- -- 96
2020-09-12 05:00:00 18 3 Este 8 Este 0 -- -- 96
2020-09-12 04:00:00 17.9 5 Este 7 Este 0 -- -- 96
2020-09-12 03:00:00 17.8 3 Este 4 Este 0 -- -- 95
2020-09-12 02:00:00 18.1 0 Calma -- -- 0 -- -- 93
2020-09-12 01:00:00 18.6 3 Este 5 Este 0 -- -- 93
2020-09-12 00:00:00 18.8 3 Norte 4 Norte 0 -- -- 91
2020-09-11 23:00:00 19.6 2 Norte 6 Nordeste 0 -- -- 87
2020-09-11 22:00:00 20.5 4 Nordeste 8 Norte 0 -- -- 83
2020-09-11 21:00:00 22 4 Norte 8 Norte 0 -- -- 74
2020-09-11 20:00:00 25.4 3 Norte 18 Noroeste 0 -- -- 63
2020-09-11 19:00:00 27.5 8 Norte 21 Noroeste 0 -- -- 52
2020-09-11 18:00:00 28.9 12 Norte 23 Norte 0 -- -- 47
2020-09-11 17:00:00 30 10 Norte 26 Norte 0 -- -- 48
2020-09-11 16:00:00 30.4 13 Norte 30 Noroeste 0 -- -- 48
2020-09-11 15:00:00 30.2 9 Norte 24 Noroeste 0 -- -- 47
2020-09-11 14:00:00 28.6 10 Noroeste 24 Noroeste 0 -- -- 51
2020-09-11 13:00:00 28.1 16 Oeste 33 Oeste 0 -- -- 58
2020-09-11 12:00:00 28.4 17 Oeste 32 Oeste 0 -- -- 63
2020-09-11 11:00:00 25.1 12 Oeste 20 Noroeste 0 -- -- 96
2020-09-11 10:00:00 22.5 3 Oeste 6 Oeste 0 -- -- 100
2020-09-11 09:00:00 20.4 0 Calma 9 Sudoeste 0 -- -- 100
2020-09-11 08:00:00 18.4 3 Sudoeste 5 Oeste 0.2 -- -- 100
2020-09-11 07:00:00 18.9 0 Calma 14 Norte 7 -- -- 99
2020-09-11 06:00:00 19.2 0 Calma 5 Oeste 0.2 -- -- 94
2020-09-11 05:00:00 19.7 4 Norte 20 Noroeste 0 -- -- 91
2020-09-11 04:00:00 18.4 2 Sur 5 Sudoeste 0 -- -- 94
2020-09-11 03:00:00 18.1 2 Sudoeste 4 Sudoeste 0 -- -- 93
2020-09-11 02:00:00 18.3 0 Calma 4 Noroeste 0 -- -- 94
2020-09-11 01:00:00 18.1 4 Norte 6 Norte 0 -- -- 92
2020-09-11 00:00:00 19 3 Norte 6 Norte 0 -- -- 88
2020-09-10 23:00:00 20.2 3 Este 19 Norte 0 -- -- 83
2020-09-10 22:00:00 20.5 6 Norte 16 Noroeste 0 -- -- 83
2020-09-10 21:00:00 21.9 3 Noroeste 18 Norte 0 -- -- 76
2020-09-10 20:00:00 23.2 8 Norte 24 Noroeste 0 -- -- 71
2020-09-10 19:00:00 25 10 Nordeste 24 Nordeste 0 -- -- 64
2020-09-10 18:00:00 24.7 10 Norte 26 Nordeste 0 -- -- 65
2020-09-10 17:00:00 25.3 13 Norte 30 Norte 0 -- -- 63
2020-09-10 16:00:00 25.3 9 Norte 24 Este 0 -- -- 67
2020-09-10 15:00:00 27.4 8 Norte 23 Norte 0 -- -- 58
2020-09-10 14:00:00 27.1 9 Norte 23 Norte 0 -- -- 55
2020-09-10 13:00:00 27.8 8 Norte 19 Noroeste 0 -- -- 56
2020-09-10 12:00:00 26.9 10 Norte 19 Norte 0 -- -- 60
2020-09-10 11:00:00 25.5 10 Nordeste 20 Nordeste 0 -- -- 70
2020-09-10 10:00:00 23.5 6 Nordeste 12 Nordeste 0 -- -- 79
2020-09-10 09:00:00 19.7 0 Calma 6 Nordeste 0 -- -- 94
2020-09-10 08:00:00 15.6 2 Este 4 Este 0 -- -- 98
2020-09-10 07:00:00 15.2 2 Este 4 Este 0 -- -- 97
2020-09-10 06:00:00 16 3 Este 5 Este 0 -- -- 97
2020-09-10 05:00:00 16.3 3 Este 7 Nordeste 0 -- -- 97
2020-09-10 04:00:00 16.1 3 Este 7 Nordeste 0 -- -- 98
2020-09-10 03:00:00 16.2 2 Este 4 Este 0 -- -- 96
2020-09-10 02:00:00 16.6 2 Este 7 Este 0 -- -- 96
2020-09-10 01:00:00 16.8 3 Este 8 Este 0 -- -- 95
2020-09-10 00:00:00 17.2 4 Este 5 Este 0 -- -- 93
2020-09-09 23:00:00 18.1 3 Este 7 Noroeste 0 -- -- 91
2020-09-09 22:00:00 19.2 3 Este 5 Sur 0 -- -- 88
2020-09-09 21:00:00 21 3 Sur 6 Sudoeste 0 -- -- 82
2020-09-09 20:00:00 23.6 4 Sudoeste 14 Sudoeste 0 -- -- 69
2020-09-09 19:00:00 25.3 10 Sudoeste 20 Sudoeste 0 -- -- 60
2020-09-09 18:00:00 26.3 10 Oeste 22 Oeste 0 -- -- 59
2020-09-09 17:00:00 26.9 11 Sudoeste 21 Sur 0 -- -- 56
2020-09-09 16:00:00 27.1 12 Sudoeste 24 Sudoeste 0 -- -- 57
2020-09-09 15:00:00 26.9 13 Sudoeste 22 Oeste 0 -- -- 58
2020-09-09 14:00:00 26.9 12 Sudoeste 24 Sudoeste 0 -- -- 60
2020-09-09 13:00:00 26.1 8 Sur 19 Sudoeste 0 -- -- 62
2020-09-09 12:00:00 24.9 5 Oeste 10 Oeste 0 -- -- 65
2020-09-09 11:00:00 25.5 4 Sudoeste 10 Sudeste 0 -- -- 63
2020-09-09 10:00:00 23.4 2 Nordeste 5 Este 0 -- -- 73
2020-09-09 09:00:00 19.4 3 Este 8 Nordeste 0 -- -- 92
2020-09-09 08:00:00 16.2 3 Nordeste 9 Norte 0 -- -- 99
2020-09-09 07:00:00 15.3 5 Este 7 Este 0 -- -- 98
2020-09-09 06:00:00 15.5 3 Nordeste 8 Norte 0 -- -- 98
2020-09-09 05:00:00 15.5 5 Este 7 Este 0 -- -- 97
2020-09-09 04:00:00 16 2 Norte 8 Este 0 -- -- 97
2020-09-09 03:00:00 16.1 3 Este 7 Este 0 -- -- 97
2020-09-09 02:00:00 15.7 2 Este 5 Este 0 -- -- 96
2020-09-09 01:00:00 16.3 4 Este 5 Este 0 -- -- 96
2020-09-09 00:00:00 17.1 2 Nordeste 6 Este 0 -- -- 95
2020-09-08 23:00:00 17.5 0 Calma 6 Nordeste 0 -- -- 94
2020-09-08 22:00:00 18.5 3 Este 4 Sudeste 0 -- -- 91
2020-09-08 21:00:00 20.2 0 Calma 4 Este 0 -- -- 88
2020-09-08 20:00:00 22 0 Calma 5 Norte 0 -- -- 83
2020-09-08 19:00:00 22.7 3 Norte 4 Norte 0 -- -- 79
2020-09-08 18:00:00 22.1 0 Calma 8 Noroeste 0 -- -- 82
2020-09-08 17:00:00 21.9 5 Noroeste 11 Noroeste 0 -- -- 81
2020-09-08 16:00:00 20.2 3 Sudoeste 27 Sudoeste 0.4 -- -- 86
2020-09-08 15:00:00 23.8 8 Sur 18 Sudeste 0 -- -- 71
2020-09-08 14:00:00 25.7 8 Norte 22 Norte 0 -- -- 62
2020-09-08 13:00:00 24.7 9 Norte 26 Norte 0 -- -- 64
2020-09-08 12:00:00 22.9 12 Norte 30 Norte 0 -- -- 74
2020-09-08 11:00:00 23.9 10 Nordeste 23 Nordeste 0 -- -- 65
2020-09-08 10:00:00 22.4 4 Norte 11 Norte 0 -- -- 77
2020-09-08 09:00:00 18.6 0 Calma 5 Este 0 -- -- 96
2020-09-08 08:00:00 14.2 3 Sudeste 6 Nordeste 0 -- -- 99
2020-09-08 07:00:00 13.8 4 Nordeste 6 Este 0 -- -- 97
2020-09-08 06:00:00 13.7 2 Este 4 Nordeste 0 -- -- 96
2020-09-08 05:00:00 14.6 2 Este 5 Nordeste 0 -- -- 95
2020-09-08 04:00:00 15.5 3 Nordeste 6 Nordeste 0 -- -- 95
2020-09-08 03:00:00 16.4 2 Nordeste 6 Noroeste 0 -- -- 95
2020-09-08 02:00:00 16.8 2 Nordeste 4 Nordeste 0 -- -- 96
2020-09-08 01:00:00 17.2 0 Calma 5 Oeste 0 -- -- 94
2020-09-08 00:00:00 17.7 3 Norte 16 Nordeste 0 -- -- 90
2020-09-07 23:00:00 18.6 10 Nordeste 22 Este 0 -- -- 78
2020-09-07 22:00:00 17.5 6 Nordeste 13 Nordeste 0 -- -- 98
2020-09-07 21:00:00 17.6 4 Nordeste 12 Nordeste 0 -- -- 100
2020-09-07 20:00:00 17.4 6 Este 18 Nordeste 0 -- -- 100
2020-09-07 19:00:00 17.3 7 Nordeste 16 Nordeste 2.4 -- -- 100
2020-09-07 18:00:00 17.4 6 Nordeste 17 Nordeste 2.8 -- -- 100
2020-09-07 17:00:00 17.4 8 Nordeste 17 Este 4.8 -- -- 100
2020-09-07 16:00:00 17.6 5 Nordeste 29 Nordeste 3.6 -- -- 100
2020-09-07 15:00:00 18.1 8 Norte 23 Nordeste 4.6 -- -- 100
2020-09-07 14:00:00 18.7 8 Nordeste 22 Nordeste 3.4 -- -- 100
2020-09-07 13:00:00 19.3 6 Nordeste 22 Nordeste 12.6 -- -- 100
2020-09-07 12:00:00 19.5 9 Nordeste 19 Nordeste 1.2 -- -- 100
2020-09-07 11:00:00 19 3 Nordeste 12 Nordeste 1.2 -- -- 100
2020-09-07 10:00:00 18.5 6 Nordeste 14 Nordeste 0.6 -- -- 99
2020-09-07 09:00:00 18.5 6 Nordeste 48 Este 7.8 -- -- 98
2020-09-07 08:00:00 18.7 15 Nordeste 31 Nordeste 3.4 -- -- 93
2020-09-07 07:00:00 19.9 16 Nordeste 33 Nordeste 0 -- -- 79
2020-09-07 06:00:00 21.3 10 Nordeste 35 Norte 0 -- -- 82
2020-09-07 05:00:00 22.6 4 Nordeste 11 Nordeste 0 -- -- 83
2020-09-07 04:00:00 21.9 3 Este 4 Nordeste 0 -- -- 85
2020-09-07 03:00:00 22.1 3 Noroeste 5 Norte 0 -- -- 83
2020-09-07 02:00:00 22.5 2 Oeste 5 Noroeste 0 -- -- 81
2020-09-07 01:00:00 23.8 5 Este 13 Este 0 -- -- 77
2020-09-07 00:00:00 23.5 3 Este 8 Este 0 -- -- 77
2020-09-06 23:00:00 23.9 4 Este 15 Sudeste 0 -- -- 75
2020-09-06 22:00:00 24.5 9 Sudeste 15 Este 0 -- -- 73
2020-09-06 21:00:00 25 7 Este 13 Este 0 -- -- 69
2020-09-06 20:00:00 25.6 9 Este 23 Este 0 -- -- 63
2020-09-06 19:00:00 26.6 12 Este 19 Este 0 -- -- 58
2020-09-06 18:00:00 27.7 14 Este 22 Este 0 -- -- 62
2020-09-06 17:00:00 27.2 11 Sudoeste 20 Sudoeste 0 -- -- 64
2020-09-06 16:00:00 27.8 9 Sudoeste 19 Oeste 0 -- -- 62
2020-09-06 15:00:00 28.1 12 Sudoeste 27 Este 0 -- -- 60
2020-09-06 14:00:00 30.4 13 Este 24 Nordeste 0 -- -- 49
2020-09-06 13:00:00 29.9 12 Nordeste 26 Este 0 -- -- 49
2020-09-06 12:00:00 29.2 13 Este 27 Este 0 -- -- 50
2020-09-06 11:00:00 27.6 5 Nordeste 18 Nordeste 0 -- -- 59
2020-09-06 10:00:00 25.4 5 Norte 13 Nordeste 0 -- -- 68
2020-09-06 09:00:00 21 3 Nordeste 6 Este 0 -- -- 88
2020-09-06 08:00:00 15.7 0 Calma 4 Norte 0 -- -- 96
2020-09-06 07:00:00 15.2 2 Nordeste 7 Nordeste 0 -- -- 95
2020-09-06 06:00:00 15.2 3 Este 5 Este 0 -- -- 94
2020-09-06 05:00:00 15.5 3 Nordeste -- -- 0 -- -- 94
2020-09-06 04:00:00 15.9 4 Este 5 Este 0 -- -- 93
2020-09-06 03:00:00 16.3 2 Nordeste 4 Este 0 -- -- 92
2020-09-06 02:00:00 16.8 4 Este 5 Este 0 -- -- 91
2020-09-06 01:00:00 17.5 4 Este 5 Este 0 -- -- 92
2020-09-06 00:00:00 17.9 2 Este 4 Este 0 -- -- 87
2020-09-05 23:00:00 18.9 2 Este 4 Este 0 -- -- 85
2020-09-05 22:00:00 20.4 0 Calma 3 Nordeste 0 -- -- 81
2020-09-05 21:00:00 22.9 0 Calma 15 Este 0 -- -- 74
2020-09-05 20:00:00 24.8 9 Este 25 Este 0 -- -- 67
2020-09-05 19:00:00 26.2 13 Este 27 Este 0 -- -- 62
2020-09-05 18:00:00 27.8 15 Este 28 Este 0 -- -- 56
2020-09-05 17:00:00 28.6 16 Este 29 Nordeste 0 -- -- 52
2020-09-05 16:00:00 29 14 Este 30 Este 0 -- -- 51
2020-09-05 15:00:00 28.7 13 Este 23 Este 0 -- -- 53
2020-09-05 14:00:00 29.1 8 Este 24 Este 0 -- -- 51
2020-09-05 13:00:00 28.7 13 Este 23 Este 0 -- -- 51
2020-09-05 12:00:00 27.5 8 Nordeste 19 Este 0 -- -- 54
2020-09-05 11:00:00 27.7 8 Nordeste 18 Nordeste 0 -- -- 55
2020-09-05 10:00:00 25.5 6 Nordeste 12 Nordeste 0 -- -- 65
2020-09-05 09:00:00 21.9 5 Nordeste 10 Norte 0 -- -- 83
2020-09-05 08:00:00 16.5 0 Calma 4 Este 0 -- -- 96
2020-09-05 07:00:00 16.3 3 Este 5 Este 0 -- -- 95
2020-09-05 06:00:00 16.6 3 Este 6 Este 0 -- -- 95
2020-09-05 05:00:00 17 4 Este 6 Este 0 -- -- 96
2020-09-05 04:00:00 16.4 2 Nordeste 5 Este 0 -- -- 93
2020-09-05 03:00:00 16.9 3 Este 6 Este 0 -- -- 93
2020-09-05 02:00:00 17.2 4 Este 5 Este 0 -- -- 93
2020-09-05 01:00:00 17.5 3 Este 4 Este 0 -- -- 89
2020-09-05 00:00:00 18.4 3 Este 4 Este 0 -- -- 86
2020-09-04 23:00:00 19.7 4 Este 5 Este 0 -- -- 84
2020-09-04 22:00:00 21.7 3 Este 4 Este 0 -- -- 77
2020-09-04 21:00:00 23.8 3 Este 10 Sudeste 0 -- -- 71
2020-09-04 20:00:00 25.3 7 Sudeste 14 Sudeste 0 -- -- 65
2020-09-04 19:00:00 26.7 7 Sudeste 15 Sudeste 0 -- -- 60
2020-09-04 18:00:00 26.8 6 Sudeste 15 Sudeste 0 -- -- 58
2020-09-04 17:00:00 27.6 4 Sudeste 17 Sudeste 0 -- -- 54
2020-09-04 16:00:00 28.2 8 Sudeste 22 Sudeste 0 -- -- 51
2020-09-04 15:00:00 28.5 8 Sudeste 20 Sur 0 -- -- 52
2020-09-04 14:00:00 30 9 Este 18 Este 0 -- -- 49
2020-09-04 13:00:00 27.8 6 Sur 16 Este 0 -- -- 53
2020-09-04 12:00:00 27.6 2 Sur 12 Sudeste 0 -- -- 53
2020-09-04 11:00:00 27.2 3 Norte 10 Noroeste 0 -- -- 55
2020-09-04 10:00:00 26.1 3 Norte 5 Noroeste 0 -- -- 61
2020-09-04 09:00:00 21.2 3 Nordeste 4 Norte 0 -- -- 83
2020-09-04 08:00:00 15.4 2 Nordeste 5 Este 0 -- -- 96
2020-09-04 07:00:00 14.6 3 Norte 4 Norte 0 -- -- 94
2020-09-04 06:00:00 14.9 3 Nordeste 4 Nordeste 0 -- -- 93
2020-09-04 05:00:00 15.6 2 Nordeste 5 Nordeste 0 -- -- 93
2020-09-04 04:00:00 16.2 4 Este 6 Este 0 -- -- 91
2020-09-04 03:00:00 17 5 Este 6 Este 0 -- -- 92
2020-09-04 02:00:00 17.2 4 Este 7 Este 0 -- -- 92
2020-09-04 01:00:00 17.4 4 Este 5 Este 0 -- -- 88
2020-09-04 00:00:00 18.5 3 Este 4 Este 0 -- -- 85
2020-09-03 23:00:00 19.8 4 Este 5 Este 0 -- -- 82
2020-09-03 22:00:00 21 4 Este 5 Sudeste 0 -- -- 76
2020-09-03 21:00:00 23.4 3 Sur 11 Sudoeste 0 -- -- 67
2020-09-03 20:00:00 25.4 7 Sudoeste 17 Sudoeste 0 -- -- 60
2020-09-03 19:00:00 27.3 10 Sudoeste 19 Sudoeste 0 -- -- 52
2020-09-03 18:00:00 27.9 12 Sudoeste 24 Sudoeste 0 -- -- 49
2020-09-03 17:00:00 29.1 10 Oeste 24 Sudoeste 0 -- -- 46
2020-09-03 16:00:00 28.2 10 Sudoeste 22 Sudoeste 0 -- -- 47
2020-09-03 15:00:00 27.6 6 Este 14 Este 0 -- -- 52
2020-09-03 14:00:00 25.1 7 Este 23 Sudoeste 0 -- -- 65
2020-09-03 13:00:00 27.1 8 Sur 20 Sur 0 -- -- 54
2020-09-03 12:00:00 28.8 5 Norte 16 Norte 0 -- -- 47
2020-09-03 11:00:00 27.3 6 Norte 15 Norte 0 -- -- 51
2020-09-03 10:00:00 25.4 3 Norte 6 Nordeste 0 -- -- 57
2020-09-03 09:00:00 20.8 3 Nordeste 5 Nordeste 0 -- -- 74
2020-09-03 08:00:00 15.7 0 Calma 6 Este 0 -- -- 96
2020-09-03 07:00:00 15.1 4 Este 6 Este 0 -- -- 95
2020-09-03 06:00:00 15.1 3 Este 5 Este 0 -- -- 93
2020-09-03 05:00:00 15.7 4 Este 6 Este 0 -- -- 91
2020-09-03 04:00:00 15.8 4 Este 7 Este 0 -- -- 91
2020-09-03 03:00:00 16.2 4 Este 8 Nordeste 0 -- -- 89
2020-09-03 02:00:00 16.5 4 Este 8 Nordeste 0 -- -- 89
2020-09-03 01:00:00 15.9 2 Este 5 Nordeste 0 -- -- 90
2020-09-03 00:00:00 16.5 2 Nordeste 4 Este 0 -- -- 87
2020-09-02 23:00:00 17.4 4 Este 6 Este 0 -- -- 83
2020-09-02 22:00:00 18.7 2 Nordeste 4 Sudeste 0 -- -- 78
2020-09-02 21:00:00 21.3 0 Calma 9 Este 0 -- -- 68
2020-09-02 20:00:00 24.2 9 Este 23 Este 0 -- -- 53
2020-09-02 19:00:00 25.9 12 Este 23 Este 0 -- -- 48
2020-09-02 18:00:00 26.1 13 Este 28 Este 0 -- -- 47
2020-09-02 17:00:00 26.9 14 Este 26 Este 0 -- -- 43
2020-09-02 16:00:00 27.3 13 Este 29 Este 0 -- -- 43
2020-09-02 15:00:00 27.5 10 Nordeste 24 Nordeste 0 -- -- 40
2020-09-02 14:00:00 29 11 Nordeste 30 Norte 0 -- -- 38
2020-09-02 13:00:00 27.7 14 Nordeste 26 Norte 0 -- -- 41
2020-09-02 12:00:00 26.8 12 Nordeste 26 Nordeste 0 -- -- 45
2020-09-02 11:00:00 24.3 11 Nordeste 29 Norte 0 -- -- 57
2020-09-02 10:00:00 21.7 15 Nordeste 33 Nordeste 0 -- -- 75
2020-09-02 09:00:00 19.3 8 Nordeste 19 Norte 0 -- -- 85
2020-09-02 08:00:00 19.1 7 Nordeste 20 Nordeste 0 -- -- 84
2020-09-02 07:00:00 19.5 8 Nordeste 22 Este 0 -- -- 77
2020-09-02 06:00:00 17.9 5 Norte 13 Nordeste 0 -- -- 88
2020-09-02 05:00:00 17.5 5 Este 8 Este 0 -- -- 90
2020-09-02 04:00:00 18.3 2 Este 4 Este 0 -- -- 89
2020-09-02 03:00:00 18.9 2 Nordeste 3 Este 0 -- -- 89
2020-09-02 02:00:00 19.2 2 Este 4 Norte 0 -- -- 88
2020-09-02 01:00:00 19.3 3 Este 5 Este 0 -- -- 87
2020-09-02 00:00:00 19.4 2 Este 4 Nordeste 0 -- -- 86
2020-09-01 23:00:00 19.8 3 Este 4 Este 0 -- -- 83
2020-09-01 22:00:00 20.3 3 Este 6 Este 0 -- -- 79
2020-09-01 21:00:00 21.9 2 Nordeste 5 Sudeste 0 -- -- 71
2020-09-01 20:00:00 24.1 4 Sudeste 14 Sudeste 0 -- -- 56
2020-09-01 19:00:00 25.1 5 Sudeste 17 Sudeste 0 -- -- 50
2020-09-01 18:00:00 26.4 9 Sudeste 19 Este 0 -- -- 50
2020-09-01 17:00:00 26.9 8 Sur 21 Este 0 -- -- 48
2020-09-01 16:00:00 27.4 9 Sur 21 Este 0 -- -- 46
2020-09-01 15:00:00 27.9 6 Sur 19 Sudeste 0 -- -- 47
2020-09-01 14:00:00 27.6 9 Sudeste 21 Sudeste 0 -- -- 49
2020-09-01 13:00:00 26.1 6 Sur 15 Sur 0 -- -- 55
2020-09-01 12:00:00 27.3 6 Este 11 Sudeste 0 -- -- 50
2020-09-01 11:00:00 26.3 5 Sudoeste 13 Este 0 -- -- 54
2020-09-01 10:00:00 24.5 4 Nordeste 8 Norte 0 -- -- 57
2020-09-01 09:00:00 19.9 0 Calma 4 Nordeste 0 -- -- 82
2020-09-01 08:00:00 14.5 2 Nordeste 5 Este 0 -- -- 98
2020-09-01 07:00:00 13.9 3 Este 6 Nordeste 0 -- -- 96
2020-09-01 06:00:00 13.8 3 Nordeste 5 Nordeste 0 -- -- 96
2020-09-01 05:00:00 14.3 4 Este 6 Este 0 -- -- 96
2020-09-01 04:00:00 14.2 2 Nordeste 4 Este 0 -- -- 94
2020-09-01 03:00:00 14.9 3 Nordeste 6 Este 0 -- -- 94
2020-09-01 02:00:00 15 4 Este 5 Este 0 -- -- 92
2020-09-01 01:00:00 15.7 0 Calma 3 Nordeste 0 -- -- 90
2020-09-01 00:00:00 16.9 0 Calma 4 Este 0 -- -- 89
2020-08-31 23:00:00 18.1 4 Sudeste 7 Sudeste 0 -- -- 85
2020-08-31 22:00:00 19.2 5 Sudeste 6 Sudeste 0 -- -- 80
2020-08-31 21:00:00 21.5 4 Sur 15 Sur 0 -- -- 67
2020-08-31 20:00:00 24 9 Sudoeste 18 Sudoeste 0 -- -- 58
2020-08-31 19:00:00 25.7 10 Sudoeste 22 Sudoeste 0 -- -- 52
2020-08-31 18:00:00 26.4 8 Sur 19 Este 0 -- -- 49
2020-08-31 17:00:00 25.8 12 Sudeste 21 Sudeste 0 -- -- 51
2020-08-31 16:00:00 26.1 5 Este 19 Sudoeste 0 -- -- 49
2020-08-31 15:00:00 25.7 9 Sur 21 Sur 0 -- -- 50
2020-08-31 14:00:00 24.7 8 Sudeste 20 Este 0 -- -- 52
2020-08-31 13:00:00 26 7 Nordeste 24 Este 0 -- -- 49
2020-08-31 12:00:00 26.2 9 Nordeste 21 Nordeste 0 -- -- 50
2020-08-31 11:00:00 25.1 7 Nordeste 17 Nordeste 0 -- -- 50
2020-08-31 10:00:00 23.2 4 Norte 8 Norte 0 -- -- 63
2020-08-31 09:00:00 19.9 3 Nordeste 8 Norte 0 -- -- 79
2020-08-31 08:00:00 15.3 0 Calma 5 Nordeste 0 -- -- 96
2020-08-31 07:00:00 15.1 3 Este 5 Este 0 -- -- 93
2020-08-31 06:00:00 16.5 3 Noroeste 10 Este 0 -- -- 90
2020-08-31 05:00:00 17.8 2 Este 19 Nordeste 0 -- -- 87
2020-08-31 04:00:00 18.3 11 Nordeste 29 Nordeste 0 -- -- 87
2020-08-31 03:00:00 18.9 9 Nordeste 25 Norte 0 -- -- 92
2020-08-31 02:00:00 18.7 4 Norte 11 Nordeste 0 -- -- 93
2020-08-31 01:00:00 19.1 5 Nordeste 19 Este 0.4 -- -- 90
2020-08-31 00:00:00 19.6 4 Norte 10 Noroeste 0 -- -- 88
2020-08-30 23:00:00 19.3 0 Calma 7 Este 0 -- -- 87
2020-08-30 22:00:00 20.1 3 Este 4 Este 0 -- -- 84
2020-08-30 21:00:00 21.9 2 Nordeste 6 Este 0 -- -- 75
2020-08-30 20:00:00 24.3 4 Sudeste 14 Este 0 -- -- 59
2020-08-30 19:00:00 24.3 9 Este 24 Este 0 -- -- 62
2020-08-30 18:00:00 25.4 9 Sudeste 23 Este 0 -- -- 54
2020-08-30 17:00:00 25.4 11 Sudoeste 23 Sudoeste 0 -- -- 53
2020-08-30 16:00:00 25.9 12 Sudoeste 23 Sudoeste 0 -- -- 52
2020-08-30 15:00:00 27 6 Noroeste 19 Oeste 0 -- -- 43
2020-08-30 14:00:00 26.5 5 Oeste 15 Oeste 0 -- -- 44
2020-08-30 13:00:00 26.6 7 Oeste 19 Oeste 0 -- -- 44
2020-08-30 12:00:00 26.6 6 Oeste 17 Oeste 0 -- -- 43
2020-08-30 11:00:00 25.6 5 Noroeste 15 Oeste 0 -- -- 51
2020-08-30 10:00:00 23 4 Oeste 8 Oeste 0 -- -- 74
2020-08-30 09:00:00 19.7 0 Calma 4 Este 0 -- -- 93
2020-08-30 08:00:00 15.8 0 Calma 4 Nordeste 0 -- -- 99
2020-08-30 07:00:00 15.2 3 Este 5 Este 0 -- -- 97
2020-08-30 06:00:00 15.8 4 Este 5 Este 0 -- -- 98
2020-08-30 05:00:00 16 3 Noroeste 4 Noroeste 0 -- -- 96
2020-08-30 04:00:00 16.8 3 Este 4 Este 0 -- -- 95
2020-08-30 03:00:00 17.9 3 Este 6 Norte 0 -- -- 95
2020-08-30 02:00:00 18.6 3 Norte 6 Norte 0 -- -- 94
2020-08-30 01:00:00 19.4 4 Norte 12 Noroeste 0 -- -- 93
2020-08-30 00:00:00 19.6 5 Nordeste 15 Este 0 -- -- 92
2020-08-29 23:00:00 19.6 7 Nordeste 51 Norte 0.6 -- -- 91
2020-08-29 22:00:00 20.8 17 Norte 33 Norte 0 -- -- 82
2020-08-29 21:00:00 20.9 12 Norte 35 Norte 0 -- -- 87
2020-08-29 20:00:00 21 16 Nordeste 41 Norte 0 -- -- 96
2020-08-29 19:00:00 21.6 17 Nordeste 36 Nordeste 0 -- -- 99
2020-08-29 18:00:00 21.8 15 Norte 39 Norte 0 -- -- 97
2020-08-29 17:00:00 22.4 17 Norte 40 Nordeste 0 -- -- 98
2020-08-29 16:00:00 23.7 17 Nordeste 34 Norte 0 -- -- 97
2020-08-29 15:00:00 23.3 9 Nordeste 19 Nordeste 0 -- -- 100
2020-08-29 14:00:00 20.8 8 Nordeste 86 Oeste 19 -- -- 100
2020-08-29 13:00:00 23.1 14 Este 37 Nordeste 0 -- -- 74
2020-08-29 12:00:00 28.7 10 Sudeste 23 Sudeste 0 -- -- 66
2020-08-29 11:00:00 28.9 9 Nordeste 17 Nordeste 0 -- -- 65
2020-08-29 10:00:00 26.2 6 Nordeste 10 Norte 0 -- -- 75
2020-08-29 09:00:00 24.6 6 Nordeste 15 Nordeste 0 -- -- 80
2020-08-29 08:00:00 22.5 4 Norte 9 Noroeste 0 -- -- 92
2020-08-29 07:00:00 22.4 5 Nordeste 11 Nordeste 0 -- -- 92
2020-08-29 06:00:00 21.9 0 Calma 5 Nordeste 0 -- -- 90
2020-08-29 05:00:00 22.8 3 Este 7 Este 0 -- -- 88
2020-08-29 04:00:00 22.6 5 Este 9 Este 0 -- -- 91
2020-08-29 03:00:00 21.5 4 Este 7 Este 0 -- -- 90
2020-08-29 02:00:00 21.6 3 Nordeste 5 Este 0 -- -- 87
2020-08-29 01:00:00 22.5 3 Este 8 Este 0 -- -- 85
2020-08-29 00:00:00 23.4 2 Este 5 Este 0 -- -- 83
2020-08-28 23:00:00 25.1 0 Calma 5 Oeste 0 -- -- 80
2020-08-28 22:00:00 25.9 3 Sur 8 Sudeste 0 -- -- 81
2020-08-28 21:00:00 26.7 5 Sudeste 14 Este 0 -- -- 78
2020-08-28 20:00:00 28.4 6 Sudeste 15 Este 0 -- -- 67
2020-08-28 19:00:00 31.1 8 Sudeste 22 Este 0 -- -- 50
2020-08-28 18:00:00 32.5 10 Sudoeste 22 Sur 0 -- -- 47
2020-08-28 17:00:00 34.2 10 Sur 24 Sur 0 -- -- 37
2020-08-28 16:00:00 34.4 9 Sur 26 Sudoeste 0 -- -- 38
2020-08-28 15:00:00 34.1 13 Sur 26 Sudeste 0 -- -- 43
2020-08-28 14:00:00 33.9 12 Sur 24 Sur 0 -- -- 35
2020-08-28 13:00:00 32.6 12 Sudeste 25 Sudeste 0 -- -- 47
2020-08-28 12:00:00 32.2 13 Sudeste 24 Sudeste 0 -- -- 46
2020-08-28 11:00:00 30.9 9 Sudeste 23 Sudeste 0 -- -- 57
2020-08-28 10:00:00 28.6 7 Este 17 Este 0 -- -- 71
2020-08-28 09:00:00 23.8 3 Norte 6 Este 0 -- -- 92
2020-08-28 08:00:00 20.1 2 Nordeste 6 Nordeste 0 -- -- 98
2020-08-28 07:00:00 19 2 Norte 6 Este 0 -- -- 95
2020-08-28 06:00:00 18.5 5 Este 6 Este 0 -- -- 95
2020-08-28 05:00:00 18.3 2 Este 4 Este 0 -- -- 93
2020-08-28 04:00:00 18.8 4 Este 6 Este 0 -- -- 93
2020-08-28 03:00:00 19 4 Este 5 Este 0 -- -- 92
2020-08-28 02:00:00 19.4 3 Este 5 Este 0 -- -- 90
2020-08-28 01:00:00 20.2 4 Este 5 Este 0 -- -- 90
2020-08-28 00:00:00 21.1 3 Este 4 Este 0 -- -- 89